createdAt,value
2023-04-15T00:02:07.026Z,0.9
2023-04-15T00:14:07.020Z,0.7
2023-04-15T00:26:07.044Z,0.7
2023-04-15T00:38:06.975Z,0.7
2023-04-15T00:50:06.972Z,0.8
2023-04-15T01:02:07.151Z,0.8
2023-04-15T01:14:07.066Z,0.7
2023-04-15T01:26:06.985Z,0.7
2023-04-15T01:38:06.989Z,0.7
2023-04-15T01:50:07.086Z,0.7
2023-04-15T02:02:07.101Z,0.7
2023-04-15T02:14:07.023Z,0.7
2023-04-15T02:26:07.111Z,0.7
2023-04-15T02:38:07.172Z,0.7
2023-04-15T02:50:07.068Z,0.7
2023-04-15T03:02:07.105Z,0.7
2023-04-15T03:14:07.112Z,0.9
2023-04-15T03:26:07.054Z,0.9
2023-04-15T03:38:06.982Z,0.9
2023-04-15T03:50:06.981Z,0.8
2023-04-15T04:02:07.120Z,0.8
2023-04-15T04:14:06.992Z,0.9
2023-04-15T04:26:07.076Z,0.9
2023-04-15T04:38:06.972Z,0.9
2023-04-15T04:50:07.005Z,0.8
2023-04-15T05:02:07.087Z,0.8
2023-04-15T05:14:07.060Z,0.9
2023-04-15T05:26:06.994Z,0.9
2023-04-15T05:38:07.099Z,0.9
2023-04-15T05:50:06.999Z,0.9
2023-04-15T06:02:07.143Z,0.9
2023-04-15T06:14:07.099Z,0.9
2023-04-15T06:26:06.981Z,0.9
2023-04-15T06:38:06.995Z,0.9
2023-04-15T06:50:06.997Z,0.9
2023-04-15T07:02:07.034Z,0.9
2023-04-15T07:14:06.982Z,0.9
2023-04-15T07:26:07.055Z,0.9
2023-04-15T07:38:06.979Z,0.9
2023-04-15T07:50:07.098Z,1.5
2023-04-15T08:02:11.122Z,1.5
2023-04-15T08:14:07.054Z,1.4
2023-04-15T08:26:07.056Z,1.4
2023-04-15T08:38:06.986Z,1.4
2023-04-15T08:50:07.045Z,1.3
2023-04-15T09:02:07.009Z,1.3
2023-04-15T09:14:07.045Z,1.3
2023-04-15T09:26:07.001Z,1.3
2023-04-15T09:38:06.988Z,1.3
2023-04-15T09:50:07.046Z,1.1
2023-04-15T10:02:07.100Z,1.1
2023-04-15T10:14:07.036Z,0.8
2023-04-15T10:26:07.061Z,0.8
2023-04-15T10:38:06.985Z,0.8
2023-04-15T10:50:07.046Z,0.8
2023-04-15T11:02:16.334Z,0.8
2023-04-15T11:14:07.076Z,0.8
2023-04-15T11:26:07.077Z,0.8
2023-04-15T11:38:06.978Z,0.8
2023-04-15T11:50:06.999Z,0.8
2023-04-15T12:02:07.073Z,0.8
2023-04-15T12:14:07.066Z,0.6
2023-04-15T12:26:06.994Z,0.6
2023-04-15T12:38:06.987Z,0.6
2023-04-15T12:50:06.974Z,0.6
2023-04-15T13:02:07.034Z,0.7
2023-04-15T13:14:07.262Z,0.7
2023-04-15T13:26:06.983Z,0.7
2023-04-15T13:38:07.037Z,0.8
2023-04-15T13:50:07.097Z,0.8
2023-04-15T14:02:07.165Z,1.4
2023-04-15T14:14:07.117Z,1.4
2023-04-15T14:26:06.993Z,1.4
2023-04-15T14:38:07.011Z,1.1
2023-04-15T14:50:07.029Z,1.1
2023-04-15T15:02:07.031Z,1.1
2023-04-15T15:14:07.017Z,1.1
2023-04-15T15:26:10.779Z,1.1
2023-04-15T15:38:06.990Z,1.2
2023-04-15T15:50:07.106Z,1.2
2023-04-15T16:02:07.600Z,1.4
2023-04-15T16:14:06.980Z,1.4
2023-04-15T16:26:07.062Z,1.4
2023-04-15T16:38:07.004Z,1.2
2023-04-15T16:50:06.990Z,1.2
2023-04-15T17:02:06.994Z,1.1
2023-04-15T17:14:07.643Z,1.1
2023-04-15T17:26:07.006Z,1.1
2023-04-15T17:38:07.067Z,1.3
2023-04-15T17:50:07.409Z,1.3
2023-04-15T18:02:07.020Z,1.1
2023-04-15T18:14:07.331Z,1.1
2023-04-15T18:26:06.989Z,1.1
2023-04-15T18:38:07.095Z,1.2
2023-04-15T18:50:06.985Z,1.2
2023-04-15T19:02:07.043Z,1.3
2023-04-15T19:14:06.996Z,1.3
2023-04-15T19:26:14.124Z,1.3
2023-04-15T19:38:07.025Z,1.0
2023-04-15T19:50:06.988Z,1.0
2023-04-15T20:02:07.138Z,1.0
2023-04-15T20:14:06.996Z,1.0
2023-04-15T20:26:07.042Z,1.0
2023-04-15T20:38:07.098Z,1.0
2023-04-15T20:50:07.002Z,1.0
2023-04-15T21:02:07.087Z,1.2
2023-04-15T21:14:07.097Z,1.2
2023-04-15T21:26:07.003Z,1.2
2023-04-15T21:38:07.087Z,1.1
2023-04-15T21:50:07.087Z,1.1
2023-04-15T22:02:07.092Z,1.3
2023-04-15T22:14:07.088Z,1.3
2023-04-15T22:26:06.981Z,1.3
2023-04-15T22:38:07.006Z,1.3
2023-04-15T22:50:07.046Z,1.3
2023-04-15T23:02:07.111Z,1.3
2023-04-15T23:14:06.985Z,1.3
2023-04-15T23:26:06.991Z,1.3
2023-04-15T23:38:07.070Z,1.4
2023-04-15T23:50:06.984Z,1.4
